createdAt,value
2018-12-05T00:00:17.183Z,98.5
2018-12-05T00:01:17.231Z,98.5
2018-12-05T00:02:16.495Z,98.6
2018-12-05T00:03:16.754Z,98.5
2018-12-05T00:04:17.023Z,98.7
2018-12-05T00:05:16.307Z,98.6
2018-12-05T00:06:16.570Z,98.7
2018-12-05T00:07:16.837Z,98.5
2018-12-05T00:08:17.113Z,98.5
2018-12-05T00:09:16.386Z,98.5
2018-12-05T00:10:16.678Z,98.5
2018-12-05T00:11:16.733Z,98.6
2018-12-05T00:12:17.010Z,98.5
2018-12-05T00:13:16.272Z,98.7
2018-12-05T00:14:16.572Z,98.6
2018-12-05T00:15:16.838Z,98.7
2018-12-05T00:16:17.156Z,98.7
2018-12-05T00:17:16.416Z,98.8
2018-12-05T00:18:16.686Z,98.9
2018-12-05T00:19:16.957Z,98.8
2018-12-05T00:20:17.225Z,98.9
2018-12-05T00:21:16.284Z,98.8
2018-12-05T00:22:16.561Z,98.6
2018-12-05T00:23:16.823Z,98.5
2018-12-05T00:24:17.290Z,98.6
2018-12-05T00:25:16.552Z,98.5
2018-12-05T00:26:16.818Z,98.5
2018-12-05T00:27:17.074Z,98.6
2018-12-05T00:28:16.336Z,98.5
2018-12-05T00:29:16.629Z,98.6
2018-12-05T00:30:16.919Z,98.6
2018-12-05T00:31:16.945Z,98.7
2018-12-05T00:32:17.200Z,98.2
2018-12-05T00:33:16.455Z,98.0
2018-12-05T00:34:16.721Z,97.9
2018-12-05T00:35:16.990Z,98.0
2018-12-05T00:36:17.243Z,98.2
2018-12-05T00:37:16.505Z,98.2
2018-12-05T00:38:16.775Z,98.2
2018-12-05T00:39:17.052Z,98.2
2018-12-05T00:40:16.324Z,98.2
2018-12-05T00:41:16.367Z,98.2
2018-12-05T00:42:16.635Z,98.2
2018-12-05T00:43:16.898Z,98.3
2018-12-05T00:44:17.166Z,98.3
2018-12-05T00:45:16.427Z,98.3
2018-12-05T00:46:16.697Z,98.5
2018-12-05T00:47:16.952Z,98.4
2018-12-05T00:48:17.218Z,98.5
2018-12-05T00:49:16.486Z,98.3
2018-12-05T00:50:16.756Z,98.2
2018-12-05T00:51:16.853Z,98.3
2018-12-05T00:52:17.105Z,98.3
2018-12-05T00:53:16.370Z,98.5
2018-12-05T00:54:16.641Z,98.3
2018-12-05T00:55:16.912Z,98.3
2018-12-05T00:56:17.178Z,98.3
2018-12-05T00:57:16.441Z,98.3
2018-12-05T00:58:16.720Z,98.2
2018-12-05T00:59:16.990Z,98.4
2018-12-05T01:00:17.245Z,98.4
2018-12-05T01:01:16.320Z,98.2
2018-12-05T01:02:16.579Z,98.3
2018-12-05T01:03:16.840Z,98.3
2018-12-05T01:04:17.094Z,98.3
2018-12-05T01:05:16.365Z,98.2
2018-12-05T01:06:16.629Z,98.4
2018-12-05T01:07:16.900Z,98.5
2018-12-05T01:08:17.161Z,98.5
2018-12-05T01:09:16.445Z,98.4
2018-12-05T01:10:16.736Z,98.4
2018-12-05T01:11:16.785Z,98.5
2018-12-05T01:12:17.052Z,98.6
2018-12-05T01:13:16.322Z,98.5
2018-12-05T01:14:16.588Z,98.6
2018-12-05T01:15:16.852Z,98.7
2018-12-05T01:16:17.120Z,98.5
2018-12-05T01:17:16.389Z,98.6
2018-12-05T01:18:16.664Z,98.5
2018-12-05T01:19:16.934Z,98.5
2018-12-05T01:20:17.548Z,98.4
2018-12-05T01:21:16.260Z,98.5
2018-12-05T01:22:16.522Z,98.5
2018-12-05T01:23:16.789Z,98.5
2018-12-05T01:24:17.056Z,98.5
2018-12-05T01:25:16.324Z,98.5
2018-12-05T01:26:16.585Z,98.5
2018-12-05T01:27:16.840Z,98.3
2018-12-05T01:28:17.102Z,98.3
2018-12-05T01:29:16.370Z,98.4
2018-12-05T01:30:16.644Z,98.3
2018-12-05T01:31:16.684Z,98.2
2018-12-05T01:32:16.953Z,98.3
2018-12-05T01:33:17.225Z,98.4
2018-12-05T01:34:16.488Z,98.3
2018-12-05T01:35:16.780Z,98.2
2018-12-05T01:36:17.046Z,98.2
2018-12-05T01:37:16.301Z,98.2
2018-12-05T01:38:16.566Z,98.2
2018-12-05T01:39:16.808Z,98.2
2018-12-05T01:40:17.067Z,98.3
2018-12-05T01:41:17.103Z,98.4
2018-12-05T01:42:16.369Z,98.5
2018-12-05T01:43:16.653Z,98.5
2018-12-05T01:44:16.915Z,98.5
2018-12-05T01:45:17.264Z,98.3
2018-12-05T01:46:16.536Z,98.3
2018-12-05T01:47:16.803Z,98.3
2018-12-05T01:48:17.045Z,98.3
2018-12-05T01:49:16.294Z,98.5
2018-12-05T01:50:16.569Z,98.5
2018-12-05T01:51:16.634Z,98.4
2018-12-05T01:52:16.979Z,98.3
2018-12-05T01:53:17.238Z,98.3
2018-12-05T01:54:16.493Z,98.5
2018-12-05T01:55:16.781Z,98.3
2018-12-05T01:56:17.054Z,98.4
2018-12-05T01:57:16.321Z,98.2
2018-12-05T01:58:16.582Z,98.0
2018-12-05T01:59:16.840Z,98.0
2018-12-05T02:00:17.441Z,98.0
2018-12-05T02:01:17.154Z,98.0
2018-12-05T02:02:16.401Z,98.0
2018-12-05T02:03:16.673Z,97.8
2018-12-05T02:04:16.933Z,97.8
2018-12-05T02:05:17.202Z,97.8
2018-12-05T02:06:16.470Z,97.8
2018-12-05T02:07:16.731Z,97.8
2018-12-05T02:08:16.997Z,97.8
2018-12-05T02:09:16.241Z,97.7
2018-12-05T02:10:16.506Z,97.7
2018-12-05T02:11:16.566Z,97.7
2018-12-05T02:12:16.834Z,97.7
2018-12-05T02:13:17.097Z,97.8
2018-12-05T02:14:16.360Z,97.8
2018-12-05T02:15:16.624Z,97.8
2018-12-05T02:16:16.870Z,98.0
2018-12-05T02:17:17.126Z,97.9
2018-12-05T02:18:16.366Z,98.0
2018-12-05T02:19:16.630Z,97.5
2018-12-05T02:20:16.913Z,97.3
2018-12-05T02:21:16.926Z,97.3
2018-12-05T02:22:17.197Z,97.5
2018-12-05T02:23:16.514Z,97.4
2018-12-05T02:24:16.777Z,97.7
2018-12-05T02:25:17.045Z,97.7
2018-12-05T02:26:16.302Z,98.0
2018-12-05T02:27:16.563Z,97.8
2018-12-05T02:28:16.805Z,97.8
2018-12-05T02:29:17.070Z,97.8
2018-12-05T02:30:16.351Z,97.8
2018-12-05T02:31:16.371Z,97.8
2018-12-05T02:32:16.645Z,97.7
2018-12-05T02:33:16.912Z,97.8
2018-12-05T02:34:17.185Z,97.8
2018-12-05T02:35:16.772Z,97.8
2018-12-05T02:36:17.038Z,97.8
2018-12-05T02:37:16.308Z,97.7
2018-12-05T02:38:16.564Z,97.8
2018-12-05T02:39:16.828Z,97.9
2018-12-05T02:40:17.137Z,97.8
2018-12-05T02:41:17.149Z,97.9
2018-12-05T02:42:16.430Z,97.8
2018-12-05T02:43:16.692Z,97.8
2018-12-05T02:44:16.985Z,97.8
2018-12-05T02:45:17.271Z,97.7
2018-12-05T02:46:16.535Z,97.8
2018-12-05T02:47:16.802Z,97.8
2018-12-05T02:48:17.096Z,97.8
2018-12-05T02:49:16.387Z,97.7
2018-12-05T02:50:16.673Z,97.8
2018-12-05T02:51:16.713Z,97.8
2018-12-05T02:52:16.980Z,97.8
2018-12-05T02:53:17.244Z,97.7
2018-12-05T02:54:16.502Z,97.5
2018-12-05T02:55:16.768Z,97.5
2018-12-05T02:56:17.035Z,97.5
2018-12-05T02:57:16.311Z,97.5
2018-12-05T02:58:16.587Z,97.6
2018-12-05T02:59:16.854Z,97.7
2018-12-05T03:00:17.129Z,97.7
2018-12-05T03:01:17.195Z,97.8
2018-12-05T03:02:16.461Z,97.8
2018-12-05T03:03:16.730Z,97.7
2018-12-05T03:04:16.987Z,97.8
2018-12-05T03:05:17.264Z,97.8
2018-12-05T03:06:16.551Z,97.7
2018-12-05T03:07:16.828Z,97.7
2018-12-05T03:08:17.096Z,97.7
2018-12-05T03:09:16.373Z,97.8
2018-12-05T03:10:16.645Z,97.8
2018-12-05T03:11:16.699Z,97.8
2018-12-05T03:12:16.970Z,97.9
2018-12-05T03:13:17.242Z,98.1
2018-12-05T03:14:16.497Z,98.2
2018-12-05T03:15:16.768Z,98.2
2018-12-05T03:16:17.055Z,98.0
2018-12-05T03:17:16.319Z,97.9
2018-12-05T03:18:16.584Z,97.8
2018-12-05T03:19:16.868Z,98.0
2018-12-05T03:20:17.159Z,98.0
2018-12-05T03:21:17.258Z,98.0
2018-12-05T03:22:16.536Z,97.9
2018-12-05T03:23:16.807Z,97.8
2018-12-05T03:24:17.076Z,98.0
2018-12-05T03:25:16.344Z,98.0
2018-12-05T03:26:16.663Z,98.0
2018-12-05T03:27:16.930Z,98.0
2018-12-05T03:28:17.195Z,98.0
2018-12-05T03:29:16.461Z,97.9
2018-12-05T03:30:16.763Z,97.8
2018-12-05T03:31:16.873Z,97.8
2018-12-05T03:32:17.151Z,97.8
2018-12-05T03:33:16.424Z,97.8
2018-12-05T03:34:16.606Z,97.9
2018-12-05T03:35:18.888Z,97.8
2018-12-05T03:36:17.174Z,97.9
2018-12-05T03:37:16.447Z,97.8
2018-12-05T03:38:16.714Z,98.0
2018-12-05T03:39:16.985Z,98.0
2018-12-05T03:40:17.257Z,98.2
2018-12-05T03:41:16.313Z,98.1
2018-12-05T03:42:16.596Z,98.0
2018-12-05T03:43:16.863Z,98.1
2018-12-05T03:44:17.127Z,98.2
2018-12-05T03:45:16.395Z,98.0
2018-12-05T03:46:16.654Z,97.8
2018-12-05T03:47:16.923Z,97.8
2018-12-05T03:48:17.188Z,97.8
2018-12-05T03:49:16.465Z,97.8
2018-12-05T03:50:16.744Z,97.9
2018-12-05T03:51:16.787Z,98.0
2018-12-05T03:52:17.057Z,98.0
2018-12-05T03:53:16.319Z,98.0
2018-12-05T03:54:16.595Z,97.9
2018-12-05T03:55:16.862Z,98.0
2018-12-05T03:56:17.145Z,98.2
2018-12-05T03:57:16.420Z,98.2
2018-12-05T03:58:16.692Z,98.2
2018-12-05T03:59:16.993Z,98.2
2018-12-05T04:00:16.284Z,98.2
2018-12-05T04:01:16.313Z,97.8
2018-12-05T04:02:16.592Z,97.7
2018-12-05T04:03:16.862Z,97.8
2018-12-05T04:04:17.122Z,97.8
2018-12-05T04:05:16.406Z,97.9
2018-12-05T04:06:16.661Z,97.9
2018-12-05T04:07:16.918Z,97.8
2018-12-05T04:08:17.180Z,97.8
2018-12-05T04:09:16.442Z,98.0
2018-12-05T04:10:16.720Z,98.0
2018-12-05T04:11:16.776Z,98.0
2018-12-05T04:12:17.043Z,98.0
2018-12-05T04:13:16.314Z,98.2
2018-12-05T04:14:16.576Z,98.3
2018-12-05T04:15:16.842Z,98.2
2018-12-05T04:16:17.450Z,98.3
2018-12-05T04:17:16.721Z,98.2
2018-12-05T04:18:16.990Z,98.0
2018-12-05T04:19:16.264Z,97.9
2018-12-05T04:20:16.539Z,97.8
2018-12-05T04:21:16.587Z,97.7
2018-12-05T04:22:16.840Z,97.7
2018-12-05T04:23:17.100Z,97.6
2018-12-05T04:24:16.389Z,97.5
2018-12-05T04:25:16.684Z,97.7
2018-12-05T04:26:16.949Z,97.7
2018-12-05T04:27:17.209Z,97.7
2018-12-05T04:28:16.495Z,97.7
2018-12-05T04:29:16.765Z,97.8
2018-12-05T04:30:17.048Z,97.8
2018-12-05T04:31:17.114Z,97.8
2018-12-05T04:32:16.417Z,97.8
2018-12-05T04:33:16.686Z,97.8
2018-12-05T04:34:16.959Z,98.0
2018-12-05T04:35:17.232Z,97.8
2018-12-05T04:36:16.532Z,98.0
2018-12-05T04:37:16.807Z,98.0
2018-12-05T04:38:17.081Z,98.1
2018-12-05T04:39:16.358Z,98.1
2018-12-05T04:40:16.627Z,98.0
2018-12-05T04:41:16.680Z,98.0
2018-12-05T04:42:16.959Z,97.9
2018-12-05T04:43:17.235Z,98.0
2018-12-05T04:44:16.519Z,98.0
2018-12-05T04:45:16.779Z,98.1
2018-12-05T04:46:17.046Z,98.2
2018-12-05T04:47:16.313Z,98.0
2018-12-05T04:48:16.603Z,98.2
2018-12-05T04:49:16.870Z,98.0
2018-12-05T04:50:17.150Z,97.5
2018-12-05T04:51:17.224Z,97.7
2018-12-05T04:52:16.504Z,97.8
2018-12-05T04:53:16.767Z,98.0
2018-12-05T04:54:17.033Z,98.2
2018-12-05T04:55:16.302Z,97.9
2018-12-05T04:56:16.557Z,97.7
2018-12-05T04:57:16.815Z,97.8
2018-12-05T04:58:17.081Z,97.7
2018-12-05T04:59:16.344Z,97.8
2018-12-05T05:00:16.635Z,97.9
2018-12-05T05:01:16.680Z,98.0
2018-12-05T05:02:16.947Z,97.8
2018-12-05T05:03:17.224Z,97.9
2018-12-05T05:04:16.488Z,98.0
2018-12-05T05:05:16.743Z,98.0
2018-12-05T05:06:17.017Z,98.0
2018-12-05T05:07:16.282Z,98.0
2018-12-05T05:08:16.543Z,98.0
2018-12-05T05:09:16.800Z,98.0
2018-12-05T05:10:17.074Z,98.0
2018-12-05T05:11:17.123Z,98.0
2018-12-05T05:12:16.395Z,98.0
2018-12-05T05:13:16.660Z,98.0
2018-12-05T05:14:16.929Z,98.0
2018-12-05T05:15:17.201Z,98.0
2018-12-05T05:16:16.464Z,98.1
2018-12-05T05:17:16.757Z,98.2
2018-12-05T05:18:17.021Z,98.2
2018-12-05T05:19:16.301Z,98.3
2018-12-05T05:20:16.587Z,98.3
2018-12-05T05:21:16.618Z,98.3
2018-12-05T05:22:16.876Z,98.4
2018-12-05T05:23:17.133Z,98.4
2018-12-05T05:24:16.402Z,98.5
2018-12-05T05:25:16.672Z,98.5
2018-12-05T05:26:16.948Z,98.5
2018-12-05T05:27:17.219Z,98.2
2018-12-05T05:28:16.489Z,97.8
2018-12-05T05:29:16.773Z,97.9
2018-12-05T05:30:17.051Z,97.9
2018-12-05T05:31:17.094Z,98.0
2018-12-05T05:32:16.361Z,98.0
2018-12-05T05:33:16.633Z,98.0
2018-12-05T05:34:16.911Z,98.0
2018-12-05T05:35:17.194Z,98.0
2018-12-05T05:36:16.465Z,98.1
2018-12-05T05:37:16.728Z,98.0
2018-12-05T05:38:16.986Z,98.0
2018-12-05T05:39:17.247Z,98.0
2018-12-05T05:40:16.523Z,98.0
2018-12-05T05:41:16.565Z,98.0
2018-12-05T05:42:16.824Z,98.0
2018-12-05T05:43:17.089Z,98.0
2018-12-05T05:44:16.368Z,98.0
2018-12-05T05:45:16.633Z,98.1
2018-12-05T05:46:16.901Z,98.2
2018-12-05T05:47:17.169Z,98.2
2018-12-05T05:48:16.436Z,98.1
2018-12-05T05:49:16.703Z,98.1
2018-12-05T05:50:16.990Z,98.1
2018-12-05T05:51:17.031Z,98.1
2018-12-05T05:52:16.305Z,98.1
2018-12-05T05:53:16.584Z,98.1
2018-12-05T05:54:16.831Z,98.1
2018-12-05T05:55:17.097Z,98.2
2018-12-05T05:56:16.364Z,98.2
2018-12-05T05:57:16.634Z,98.2
2018-12-05T05:58:16.898Z,98.4
2018-12-05T05:59:16.903Z,98.4
2018-12-05T06:00:17.210Z,98.4
2018-12-05T06:01:17.222Z,98.4
2018-12-05T06:02:16.494Z,98.5
2018-12-05T06:03:16.755Z,98.7
2018-12-05T06:04:17.025Z,98.7
2018-12-05T06:05:16.294Z,98.7
2018-12-05T06:06:16.561Z,98.4
2018-12-05T06:07:16.828Z,98.3
2018-12-05T06:08:17.195Z,98.2
2018-12-05T06:09:16.465Z,98.2
2018-12-05T06:10:16.731Z,98.2
2018-12-05T06:11:16.784Z,98.3
2018-12-05T06:12:17.041Z,98.2
2018-12-05T06:13:16.311Z,98.1
2018-12-05T06:14:16.574Z,98.0
2018-12-05T06:15:16.843Z,98.0
2018-12-05T06:16:17.101Z,98.0
2018-12-05T06:17:16.363Z,98.0
2018-12-05T06:18:16.632Z,98.0
2018-12-05T06:19:16.900Z,97.8
2018-12-05T06:20:17.170Z,97.8
2018-12-05T06:21:17.241Z,98.0
2018-12-05T06:22:16.503Z,98.0
2018-12-05T06:23:16.770Z,98.0
2018-12-05T06:24:17.033Z,98.0
2018-12-05T06:25:16.296Z,98.1
2018-12-05T06:26:16.563Z,98.2
2018-12-05T06:27:16.836Z,98.2
2018-12-05T06:28:17.362Z,98.2
2018-12-05T06:29:16.623Z,98.2
2018-12-05T06:30:16.912Z,98.3
2018-12-05T06:31:16.957Z,98.4
2018-12-05T06:32:17.219Z,98.3
2018-12-05T06:33:16.586Z,98.3
2018-12-05T06:34:16.851Z,98.3
2018-12-05T06:35:17.155Z,98.3
2018-12-05T06:36:16.458Z,98.3
2018-12-05T06:37:16.717Z,98.4
2018-12-05T06:38:16.979Z,98.3
2018-12-05T06:39:17.242Z,98.2
2018-12-05T06:40:16.527Z,97.9
2018-12-05T06:41:16.559Z,97.8
2018-12-05T06:42:16.816Z,97.8
2018-12-05T06:43:17.084Z,97.9
2018-12-05T06:44:16.355Z,97.9
2018-12-05T06:45:16.623Z,97.9
2018-12-05T06:46:16.894Z,97.8
2018-12-05T06:47:17.164Z,97.8
2018-12-05T06:48:16.437Z,97.8
2018-12-05T06:49:16.704Z,97.7
2018-12-05T06:50:16.974Z,97.6
2018-12-05T06:51:17.045Z,97.7
2018-12-05T06:52:16.314Z,97.8
2018-12-05T06:53:16.580Z,97.8
2018-12-05T06:54:16.857Z,97.8
2018-12-05T06:55:17.129Z,97.9
2018-12-05T06:56:16.394Z,97.9
2018-12-05T06:57:16.662Z,97.8
2018-12-05T06:58:16.931Z,97.8
2018-12-05T06:59:17.321Z,97.8
2018-12-05T07:00:16.620Z,98.0
2018-12-05T07:01:16.655Z,97.8
2018-12-05T07:02:16.933Z,97.5
2018-12-05T07:03:17.222Z,97.5
2018-12-05T07:04:16.478Z,97.4
2018-12-05T07:05:16.754Z,97.5
2018-12-05T07:06:17.020Z,97.7
2018-12-05T07:07:17.791Z,97.5
2018-12-05T07:08:17.054Z,97.5
2018-12-05T07:09:16.323Z,97.5
2018-12-05T07:10:16.593Z,97.5
2018-12-05T07:11:16.667Z,97.5
2018-12-05T07:12:16.928Z,97.5
2018-12-05T07:13:17.196Z,97.6
2018-12-05T07:14:16.575Z,97.5
2018-12-05T07:15:16.834Z,97.5
2018-12-05T07:16:17.097Z,97.5
2018-12-05T07:17:16.371Z,97.5
2018-12-05T07:18:16.639Z,97.5
2018-12-05T07:19:16.926Z,97.4
2018-12-05T07:20:17.199Z,97.0
2018-12-05T07:21:17.248Z,97.0
2018-12-05T07:22:16.523Z,97.0
2018-12-05T07:23:16.800Z,97.0
2018-12-05T07:24:17.057Z,97.3
2018-12-05T07:25:16.327Z,97.3
2018-12-05T07:26:16.590Z,97.4
2018-12-05T07:27:16.857Z,97.5
2018-12-05T07:28:17.273Z,97.5
2018-12-05T07:29:16.537Z,97.5
2018-12-05T07:30:16.816Z,97.6
2018-12-05T07:31:16.863Z,97.6
2018-12-05T07:32:17.123Z,97.5
2018-12-05T07:33:16.395Z,97.7
2018-12-05T07:34:16.680Z,97.6
2018-12-05T07:35:16.954Z,97.6
2018-12-05T07:36:17.213Z,97.2
2018-12-05T07:37:16.493Z,97.2
2018-12-05T07:38:19.857Z,97.2
2018-12-05T07:39:17.160Z,97.2
2018-12-05T07:40:16.417Z,97.1
2018-12-05T07:41:16.479Z,97.0
2018-12-05T07:42:16.751Z,97.0
2018-12-05T07:43:17.017Z,97.0
2018-12-05T07:44:16.288Z,96.8
2018-12-05T07:45:16.841Z,96.8
2018-12-05T07:46:17.113Z,96.8
2018-12-05T07:47:16.386Z,97.0
2018-12-05T07:48:16.655Z,97.0
2018-12-05T07:49:16.926Z,96.8
2018-12-05T07:50:17.200Z,96.8
2018-12-05T07:51:17.255Z,96.8
2018-12-05T07:52:16.530Z,96.8
2018-12-05T07:53:16.804Z,96.8
2018-12-05T07:54:17.065Z,96.7
2018-12-05T07:55:16.332Z,96.7
2018-12-05T07:56:16.594Z,96.8
2018-12-05T07:57:16.875Z,96.8
2018-12-05T07:58:17.136Z,96.7
2018-12-05T07:59:16.394Z,96.5
2018-12-05T08:00:16.672Z,96.2
2018-12-05T08:01:16.729Z,96.2
2018-12-05T08:02:16.992Z,96.2
2018-12-05T08:03:16.257Z,96.4
2018-12-05T08:04:16.526Z,96.5
2018-12-05T08:05:16.795Z,96.5
2018-12-05T08:06:17.054Z,96.5
2018-12-05T08:07:16.315Z,96.2
2018-12-05T08:08:16.585Z,96.2
2018-12-05T08:09:16.844Z,96.2
2018-12-05T08:10:17.129Z,96.5
2018-12-05T08:11:17.155Z,96.8
2018-12-05T08:12:16.420Z,96.5
2018-12-05T08:13:16.685Z,96.6
2018-12-05T08:14:16.956Z,96.4
2018-12-05T08:15:17.224Z,96.0
2018-12-05T08:16:16.482Z,96.0
2018-12-05T08:17:16.750Z,96.0
2018-12-05T08:18:17.014Z,96.0
2018-12-05T08:19:16.269Z,96.0
2018-12-05T08:20:16.547Z,95.7
2018-12-05T08:21:16.604Z,95.8
2018-12-05T08:22:16.875Z,95.8
2018-12-05T08:23:17.147Z,95.8
2018-12-05T08:24:16.415Z,95.6
2018-12-05T08:25:16.680Z,95.5
2018-12-05T08:26:16.937Z,95.7
2018-12-05T08:27:17.201Z,95.3
2018-12-05T08:28:16.475Z,95.5
2018-12-05T08:29:16.741Z,95.3
2018-12-05T08:30:17.019Z,95.7
2018-12-05T08:31:17.080Z,95.8
2018-12-05T08:32:16.352Z,95.9
2018-12-05T08:33:16.625Z,95.8
2018-12-05T08:34:16.893Z,95.8
2018-12-05T08:35:17.152Z,95.8
2018-12-05T08:36:16.423Z,95.8
2018-12-05T08:37:16.688Z,95.8
2018-12-05T08:38:16.946Z,95.7
2018-12-05T08:39:17.214Z,95.8
2018-12-05T08:40:16.489Z,95.7
2018-12-05T08:41:16.538Z,95.7
2018-12-05T08:42:16.799Z,95.7
2018-12-05T08:43:17.069Z,95.4
2018-12-05T08:44:16.342Z,95.5
2018-12-05T08:45:16.608Z,95.6
2018-12-05T08:46:16.888Z,95.8
2018-12-05T08:47:17.162Z,95.8
2018-12-05T08:48:16.434Z,95.7
2018-12-05T08:49:16.707Z,95.8
2018-12-05T08:50:16.980Z,95.9
2018-12-05T08:51:17.037Z,95.8
2018-12-05T08:52:16.305Z,95.8
2018-12-05T08:53:16.579Z,95.7
2018-12-05T08:54:21.469Z,95.7
2018-12-05T08:55:16.767Z,95.7
2018-12-05T08:56:17.036Z,95.8
2018-12-05T08:57:16.297Z,96.0
2018-12-05T08:58:16.564Z,96.0
2018-12-05T08:59:16.827Z,95.9
2018-12-05T09:00:17.097Z,95.6
2018-12-05T09:01:17.505Z,95.6
2018-12-05T09:02:16.773Z,95.5
2018-12-05T09:03:17.030Z,95.5
2018-12-05T09:04:16.287Z,95.5
2018-12-05T09:05:16.561Z,95.5
2018-12-05T09:06:16.836Z,95.7
2018-12-05T09:07:17.113Z,95.5
2018-12-05T09:08:16.377Z,95.7
2018-12-05T09:09:16.647Z,95.6
2018-12-05T09:10:16.937Z,95.5
2018-12-05T09:11:16.980Z,95.3
2018-12-05T09:12:17.230Z,95.2
2018-12-05T09:13:16.499Z,95.2
2018-12-05T09:14:16.768Z,95.0
2018-12-05T09:15:17.041Z,94.7
2018-12-05T09:16:16.299Z,94.7
2018-12-05T09:17:16.560Z,94.7
2018-12-05T09:18:16.840Z,94.5
2018-12-05T09:19:17.103Z,94.7
2018-12-05T09:20:16.375Z,94.7
2018-12-05T09:21:16.416Z,94.5
2018-12-05T09:22:16.679Z,94.5
2018-12-05T09:23:16.936Z,94.8
2018-12-05T09:24:17.199Z,94.6
2018-12-05T09:25:16.459Z,94.3
2018-12-05T09:26:16.727Z,94.2
2018-12-05T09:27:17.004Z,94.6
2018-12-05T09:28:16.268Z,94.7
2018-12-05T09:29:16.530Z,94.7
2018-12-05T09:30:16.825Z,94.5
2018-12-05T09:31:16.857Z,94.4
2018-12-05T09:32:17.121Z,94.5
2018-12-05T09:33:16.388Z,94.5
2018-12-05T09:34:16.650Z,94.4
2018-12-05T09:35:16.931Z,94.3
2018-12-05T09:36:17.216Z,94.3
2018-12-05T09:37:16.485Z,94.7
2018-12-05T09:38:16.749Z,94.7
2018-12-05T09:39:17.013Z,94.6
2018-12-05T09:40:16.288Z,94.5
2018-12-05T09:41:16.336Z,94.5
2018-12-05T09:42:16.608Z,94.4
2018-12-05T09:43:16.883Z,94.3
2018-12-05T09:44:17.149Z,94.2
2018-12-05T09:45:16.414Z,94.5
2018-12-05T09:46:16.674Z,94.4
2018-12-05T09:47:16.936Z,94.4
2018-12-05T09:48:17.211Z,94.4
2018-12-05T09:49:16.484Z,94.2
2018-12-05T09:50:16.742Z,94.3
2018-12-05T09:51:16.818Z,94.2
2018-12-05T09:52:17.076Z,94.3
2018-12-05T09:53:16.343Z,94.2
2018-12-05T09:54:16.609Z,94.5
2018-12-05T09:55:16.893Z,94.5
2018-12-05T09:56:17.185Z,94.5
2018-12-05T09:57:16.464Z,94.7
2018-12-05T09:58:16.737Z,94.9
2018-12-05T09:59:17.013Z,95.0
2018-12-05T10:00:16.295Z,95.2
2018-12-05T10:01:16.332Z,95.5
2018-12-05T10:02:16.589Z,95.7
2018-12-05T10:03:16.845Z,95.9
2018-12-05T10:04:17.109Z,95.7
2018-12-05T10:05:16.382Z,95.3
2018-12-05T10:06:16.659Z,95.2
2018-12-05T10:07:16.919Z,95.4
2018-12-05T10:08:17.188Z,95.2
2018-12-05T10:09:16.455Z,95.1
2018-12-05T10:10:16.750Z,94.9
2018-12-05T10:11:16.778Z,95.3
2018-12-05T10:12:17.040Z,95.0
2018-12-05T10:13:16.306Z,95.0
2018-12-05T10:14:16.578Z,95.2
2018-12-05T10:15:16.860Z,95.3
2018-12-05T10:16:17.117Z,95.3
2018-12-05T10:17:16.380Z,95.2
2018-12-05T10:18:16.653Z,95.0
2018-12-05T10:19:16.919Z,95.0
2018-12-05T10:20:17.201Z,94.8
2018-12-05T10:21:16.257Z,94.8
2018-12-05T10:22:16.551Z,94.8
2018-12-05T10:23:16.821Z,94.8
2018-12-05T10:24:17.082Z,95.2
2018-12-05T10:25:16.353Z,95.2
2018-12-05T10:26:16.625Z,95.2
2018-12-05T10:27:16.894Z,95.0
2018-12-05T10:28:17.169Z,95.0
2018-12-05T10:29:16.442Z,95.0
2018-12-05T10:30:16.721Z,95.0
2018-12-05T10:31:16.753Z,94.8
2018-12-05T10:32:17.016Z,94.8
2018-12-05T10:33:16.277Z,94.9
2018-12-05T10:34:16.546Z,95.1
2018-12-05T10:35:16.807Z,95.0
2018-12-05T10:36:17.090Z,95.0
2018-12-05T10:37:16.347Z,94.6
2018-12-05T10:38:16.625Z,94.5
2018-12-05T10:39:16.890Z,94.8
2018-12-05T10:40:17.175Z,94.3
2018-12-05T10:41:17.205Z,94.3
2018-12-05T10:42:16.476Z,95.2
2018-12-05T10:43:16.736Z,95.2
2018-12-05T10:44:17.021Z,95.0
2018-12-05T10:45:16.293Z,94.7
2018-12-05T10:46:16.553Z,94.5
2018-12-05T10:47:16.823Z,94.2
2018-12-05T10:48:17.084Z,94.7
2018-12-05T10:49:16.345Z,94.7
2018-12-05T10:50:16.621Z,95.2
2018-12-05T10:51:16.683Z,95.1
2018-12-05T10:52:16.940Z,94.8
2018-12-05T10:53:17.201Z,94.4
2018-12-05T10:54:16.472Z,94.3
2018-12-05T10:55:16.744Z,94.3
2018-12-05T10:56:17.006Z,94.3
2018-12-05T10:57:16.277Z,94.3
2018-12-05T10:58:16.547Z,94.5
2018-12-05T10:59:16.815Z,94.6
2018-12-05T11:00:17.111Z,94.8
2018-12-05T11:01:17.173Z,94.5
2018-12-05T11:02:16.443Z,94.3
2018-12-05T11:03:16.706Z,94.2
2018-12-05T11:04:16.996Z,94.2
2018-12-05T11:05:16.260Z,94.3
2018-12-05T11:06:16.541Z,94.7
2018-12-05T11:07:16.808Z,94.7
2018-12-05T11:08:17.075Z,93.9
2018-12-05T11:09:16.351Z,93.8
2018-12-05T11:10:16.620Z,94.3
2018-12-05T11:11:16.688Z,94.6
2018-12-05T11:12:16.950Z,94.4
2018-12-05T11:13:17.212Z,94.7
2018-12-05T11:14:16.475Z,94.8
2018-12-05T11:15:16.745Z,94.7
2018-12-05T11:16:17.019Z,94.2
2018-12-05T11:17:16.285Z,94.3
2018-12-05T11:18:16.549Z,93.8
2018-12-05T11:19:16.810Z,93.8
2018-12-05T11:20:17.091Z,93.8
2018-12-05T11:21:17.129Z,93.6
2018-12-05T11:22:16.388Z,93.8
2018-12-05T11:23:16.654Z,93.5
2018-12-05T11:24:16.917Z,93.5
2018-12-05T11:25:17.185Z,93.5
2018-12-05T11:26:16.445Z,93.5
2018-12-05T11:27:16.707Z,93.4
2018-12-05T11:28:16.965Z,94.1
2018-12-05T11:29:17.228Z,94.0
2018-12-05T11:30:16.506Z,94.2
2018-12-05T11:31:16.557Z,94.6
2018-12-05T11:32:16.821Z,94.2
2018-12-05T11:33:17.084Z,94.2
2018-12-05T11:34:16.356Z,94.3
2018-12-05T11:35:16.629Z,94.4
2018-12-05T11:36:16.896Z,94.5
2018-12-05T11:37:17.160Z,94.3
2018-12-05T11:38:16.423Z,94.2
2018-12-05T11:39:16.693Z,94.4
2018-12-05T11:40:16.963Z,94.5
2018-12-05T11:41:17.026Z,94.5
2018-12-05T11:42:16.297Z,94.8
2018-12-05T11:43:16.571Z,94.6
2018-12-05T11:44:16.842Z,95.0
2018-12-05T11:45:17.108Z,94.8
2018-12-05T11:46:16.376Z,94.5
2018-12-05T11:47:16.643Z,94.4
2018-12-05T11:48:16.912Z,94.0
2018-12-05T11:49:17.206Z,94.2
2018-12-05T11:50:16.473Z,94.1
2018-12-05T11:51:16.514Z,94.5
2018-12-05T11:52:16.772Z,94.3
2018-12-05T11:53:17.037Z,94.2
2018-12-05T11:54:16.304Z,94.1
2018-12-05T11:55:16.574Z,94.0
2018-12-05T11:56:16.839Z,94.2
2018-12-05T11:57:17.105Z,94.3
2018-12-05T11:58:16.378Z,94.3
2018-12-05T11:59:16.642Z,93.9
2018-12-05T12:00:16.918Z,94.0
2018-12-05T12:01:16.957Z,94.0
2018-12-05T12:02:22.542Z,94.1
2018-12-05T12:03:16.834Z,93.8
2018-12-05T12:04:17.113Z,93.6
2018-12-05T12:05:16.378Z,93.9
2018-12-05T12:06:16.644Z,93.8
2018-12-05T12:07:16.912Z,93.8
2018-12-05T12:08:17.187Z,94.1
2018-12-05T12:09:16.463Z,93.7
2018-12-05T12:10:16.737Z,93.8
2018-12-05T12:11:16.791Z,93.6
2018-12-05T12:12:17.051Z,93.5
2018-12-05T12:13:16.313Z,93.6
2018-12-05T12:14:16.586Z,93.5
2018-12-05T12:15:16.860Z,93.9
2018-12-05T12:16:17.121Z,93.8
2018-12-05T12:17:16.385Z,93.8
2018-12-05T12:18:16.656Z,94.2
2018-12-05T12:19:16.929Z,94.2
2018-12-05T12:20:17.212Z,93.9
2018-12-05T12:21:16.259Z,93.7
2018-12-05T12:22:16.563Z,94.0
2018-12-05T12:23:16.827Z,93.7
2018-12-05T12:24:17.166Z,93.7
2018-12-05T12:25:16.426Z,93.5
2018-12-05T12:26:16.686Z,93.8
2018-12-05T12:27:16.961Z,94.2
2018-12-05T12:28:17.224Z,94.3
2018-12-05T12:29:16.479Z,93.8
2018-12-05T12:30:16.773Z,93.8
2018-12-05T12:31:16.827Z,93.6
2018-12-05T12:32:17.099Z,93.4
2018-12-05T12:33:16.360Z,93.3
2018-12-05T12:34:16.625Z,93.3
2018-12-05T12:35:16.908Z,93.3
2018-12-05T12:36:17.175Z,93.4
2018-12-05T12:37:16.439Z,93.0
2018-12-05T12:38:16.706Z,92.9
2018-12-05T12:39:16.987Z,92.9
2018-12-05T12:40:16.270Z,92.8
2018-12-05T12:41:16.301Z,93.0
2018-12-05T12:42:16.576Z,93.3
2018-12-05T12:43:16.848Z,93.3
2018-12-05T12:44:17.113Z,92.9
2018-12-05T12:45:16.381Z,92.9
2018-12-05T12:46:16.653Z,92.9
2018-12-05T12:47:16.934Z,92.8
2018-12-05T12:48:17.209Z,92.8
2018-12-05T12:49:16.485Z,92.6
2018-12-05T12:50:16.760Z,92.5
2018-12-05T12:51:16.812Z,92.7
2018-12-05T12:52:17.080Z,92.3
2018-12-05T12:53:16.350Z,92.7
2018-12-05T12:54:16.609Z,92.4
2018-12-05T12:55:16.870Z,92.4
2018-12-05T12:56:17.139Z,92.3
2018-12-05T12:57:16.405Z,92.1
2018-12-05T12:58:16.670Z,91.8
2018-12-05T12:59:16.947Z,91.7
2018-12-05T13:00:17.244Z,92.1
2018-12-05T13:01:16.270Z,92.3
2018-12-05T13:02:16.556Z,92.2
2018-12-05T13:03:16.820Z,92.2
2018-12-05T13:04:17.090Z,92.4
2018-12-05T13:05:16.350Z,92.4
2018-12-05T13:06:16.619Z,92.4
2018-12-05T13:07:16.886Z,92.2
2018-12-05T13:08:17.156Z,92.5
2018-12-05T13:09:16.419Z,92.5
2018-12-05T13:10:16.701Z,92.6
2018-12-05T13:11:16.749Z,92.8
2018-12-05T13:12:17.030Z,92.5
2018-12-05T13:13:16.293Z,92.6
2018-12-05T13:14:16.561Z,92.4
2018-12-05T13:15:16.835Z,92.4
2018-12-05T13:16:17.126Z,92.7
2018-12-05T13:17:16.394Z,93.0
2018-12-05T13:18:16.669Z,92.9